createdAt,value
2023-05-14T00:00:33.625Z,71.47
2023-05-14T00:03:00.446Z,71.68
2023-05-14T00:05:27.394Z,71.90
2023-05-14T00:07:53.909Z,71.85
2023-05-14T00:10:22.262Z,72.50
2023-05-14T00:12:49.213Z,72.48
2023-05-14T00:15:16.260Z,72.48
2023-05-14T00:17:42.942Z,72.79
2023-05-14T00:20:12.511Z,72.66
2023-05-14T00:22:39.770Z,72.60
2023-05-14T00:25:08.346Z,72.78
2023-05-14T00:27:37.693Z,72.84
2023-05-14T00:30:05.982Z,72.88
2023-05-14T00:32:32.988Z,72.84
2023-05-14T00:34:59.720Z,73.21
2023-05-14T00:37:26.471Z,73.11
2023-05-14T00:39:53.143Z,72.92
2023-05-14T00:42:19.748Z,72.90
2023-05-14T00:44:46.714Z,72.86
2023-05-14T00:47:13.703Z,72.88
2023-05-14T00:49:41.237Z,72.68
2023-05-14T00:52:08.249Z,72.53
2023-05-14T00:54:36.506Z,72.42
2023-05-14T00:57:04.900Z,72.45
2023-05-14T00:59:31.916Z,72.22
2023-05-14T01:01:59.111Z,72.08
2023-05-14T01:04:26.100Z,72.52
2023-05-14T01:07:23.542Z,72.16
2023-05-14T01:10:04.008Z,71.72
2023-05-14T01:12:45.553Z,71.57
2023-05-14T01:15:34.527Z,71.55
2023-05-14T01:18:08.273Z,72.07
2023-05-14T01:20:34.997Z,72.45
2023-05-14T01:23:01.622Z,72.59
2023-05-14T01:25:29.332Z,72.74
2023-05-14T01:28:02.008Z,72.93
2023-05-14T01:30:38.225Z,72.38
2023-05-14T01:33:12.517Z,72.72
2023-05-14T01:35:40.529Z,72.51
2023-05-14T01:38:11.504Z,72.89
2023-05-14T01:40:38.649Z,72.68
2023-05-14T01:43:05.938Z,73.05
2023-05-14T01:45:36.344Z,73.19
2023-05-14T01:48:03.512Z,73.34
2023-05-14T01:50:30.290Z,73.30
2023-05-14T01:52:57.042Z,73.23
2023-05-14T01:55:24.819Z,73.52
2023-05-14T01:57:52.509Z,74.39
2023-05-14T02:00:20.079Z,75.01
2023-05-14T02:02:47.104Z,75.97
2023-05-14T02:05:14.089Z,76.74
2023-05-14T02:07:40.750Z,77.02
2023-05-14T02:10:08.137Z,77.17
2023-05-14T02:12:34.809Z,76.33
2023-05-14T02:15:01.508Z,76.57
2023-05-14T02:17:28.345Z,75.19
2023-05-14T02:19:55.504Z,76.17
2023-05-14T02:22:22.078Z,75.83
2023-05-14T02:24:49.862Z,78.19
2023-05-14T02:27:16.560Z,79.38
2023-05-14T02:29:43.168Z,81.62
2023-05-14T02:32:10.431Z,84.05
2023-05-14T02:34:37.143Z,83.13
2023-05-14T02:37:04.009Z,87.09
2023-05-14T02:39:30.911Z,88.53
2023-05-14T02:41:57.654Z,85.90
2023-05-14T02:44:24.748Z,86.26
2023-05-14T02:46:51.970Z,84.40
2023-05-14T02:49:18.576Z,82.15
2023-05-14T02:51:45.509Z,78.17
2023-05-14T02:54:12.210Z,78.43
2023-05-14T02:56:38.786Z,77.69
2023-05-14T02:59:05.413Z,77.96
2023-05-14T03:01:32.485Z,77.04
2023-05-14T03:03:59.634Z,77.54
2023-05-14T03:06:26.614Z,77.25
2023-05-14T03:08:53.267Z,77.45
2023-05-14T03:11:19.951Z,77.74
2023-05-14T03:13:46.727Z,78.50
2023-05-14T03:16:13.416Z,78.47
2023-05-14T03:18:40.262Z,79.10
2023-05-14T03:21:06.873Z,79.05
2023-05-14T03:23:35.446Z,77.96
2023-05-14T03:26:02.306Z,79.88
2023-05-14T03:28:29.200Z,80.97
2023-05-14T03:30:55.872Z,84.52
2023-05-14T03:33:22.910Z,86.40
2023-05-14T03:35:49.633Z,90.01
2023-05-14T03:38:16.572Z,92.80
2023-05-14T03:40:44.746Z,95.39
2023-05-14T03:43:12.286Z,97.80
2023-05-14T03:45:39.388Z,100.00
2023-05-14T03:48:06.512Z,98.37
2023-05-14T03:50:33.337Z,97.42
2023-05-14T03:53:00.379Z,97.41
2023-05-14T03:55:27.017Z,95.91
2023-05-14T03:57:53.650Z,94.05
2023-05-14T04:00:20.385Z,93.44
2023-05-14T04:02:47.158Z,90.75
2023-05-14T04:05:13.892Z,88.07
2023-05-14T04:07:40.633Z,85.98
2023-05-14T04:10:07.834Z,86.67
2023-05-14T04:12:34.418Z,84.99
2023-05-14T04:15:01.608Z,83.29
2023-05-14T04:17:28.573Z,83.32
2023-05-14T04:19:55.236Z,83.32
2023-05-14T04:22:21.892Z,83.51
2023-05-14T04:24:48.570Z,83.43
2023-05-14T04:27:21.602Z,82.48
2023-05-14T04:29:51.372Z,81.83
2023-05-14T04:32:18.540Z,82.11
2023-05-14T04:34:46.917Z,79.95
2023-05-14T04:37:14.178Z,80.20
2023-05-14T04:39:40.836Z,80.79
2023-05-14T04:42:08.008Z,81.68
2023-05-14T04:44:35.651Z,83.30
2023-05-14T04:47:02.928Z,84.24
2023-05-14T04:49:30.688Z,86.25
2023-05-14T04:51:57.311Z,88.21
2023-05-14T04:54:24.125Z,90.83
2023-05-14T04:56:51.229Z,94.16
2023-05-14T04:59:18.103Z,96.43
2023-05-14T05:01:46.017Z,97.89
2023-05-14T05:04:13.075Z,98.23
2023-05-14T05:06:40.226Z,100.00
2023-05-14T05:09:07.068Z,100.00
2023-05-14T05:11:33.678Z,100.00
2023-05-14T05:14:00.320Z,100.00
2023-05-14T05:16:26.947Z,100.00
2023-05-14T05:18:53.678Z,100.00
2023-05-14T05:21:20.697Z,100.00
2023-05-14T05:23:47.639Z,100.00
2023-05-14T05:26:14.402Z,100.00
2023-05-14T05:28:41.457Z,100.00
2023-05-14T05:31:08.425Z,100.00
2023-05-14T05:33:35.694Z,100.00
2023-05-14T05:36:02.409Z,100.00
2023-05-14T05:38:29.185Z,100.00
2023-05-14T05:40:55.980Z,100.00
2023-05-14T05:43:22.671Z,100.00
2023-05-14T05:45:49.412Z,100.00
2023-05-14T05:48:16.089Z,100.00
2023-05-14T05:50:44.969Z,100.00
2023-05-14T05:53:12.946Z,100.00
2023-05-14T05:55:40.765Z,100.00
2023-05-14T05:58:07.427Z,100.00
2023-05-14T06:00:34.255Z,100.00
2023-05-14T06:03:01.197Z,100.00
2023-05-14T06:05:28.002Z,100.00
2023-05-14T06:07:54.914Z,100.00
2023-05-14T06:10:21.823Z,100.00
2023-05-14T06:12:48.611Z,100.00
2023-05-14T06:15:15.315Z,100.00
2023-05-14T06:17:42.044Z,100.00
2023-05-14T06:20:09.179Z,100.00
2023-05-14T06:22:35.991Z,100.00
2023-05-14T06:25:02.577Z,100.00
2023-05-14T06:27:29.200Z,100.00
2023-05-14T06:29:55.976Z,100.00
2023-05-14T06:32:22.673Z,100.00
2023-05-14T06:34:49.373Z,100.00
2023-05-14T06:37:16.029Z,100.00
2023-05-14T06:39:50.137Z,100.00
2023-05-14T06:42:17.977Z,100.00
2023-05-14T06:44:45.983Z,100.00
2023-05-14T06:47:12.721Z,100.00
2023-05-14T06:49:39.661Z,100.00
2023-05-14T06:52:06.719Z,100.00
2023-05-14T06:54:33.423Z,100.00
2023-05-14T06:57:00.274Z,100.00
2023-05-14T06:59:27.293Z,100.00
2023-05-14T07:01:53.902Z,100.00
2023-05-14T07:04:20.808Z,100.00
2023-05-14T07:06:47.847Z,100.00
2023-05-14T07:09:14.528Z,100.00
2023-05-14T07:11:41.201Z,100.00
2023-05-14T07:14:07.796Z,100.00
2023-05-14T07:16:34.556Z,100.00
2023-05-14T07:19:01.275Z,100.00
2023-05-14T07:21:28.164Z,100.00
2023-05-14T07:23:54.756Z,100.00
2023-05-14T07:26:21.980Z,100.00
2023-05-14T07:28:48.617Z,100.00
2023-05-14T07:31:15.426Z,100.00
2023-05-14T07:33:42.017Z,100.00
2023-05-14T07:36:09.101Z,100.00
2023-05-14T07:38:35.860Z,100.00
2023-05-14T07:41:02.954Z,100.00
2023-05-14T07:43:31.237Z,100.00
2023-05-14T07:45:57.917Z,100.00
2023-05-14T07:48:24.558Z,100.00
2023-05-14T07:50:51.972Z,100.00
2023-05-14T07:53:18.771Z,100.00
2023-05-14T07:55:46.988Z,100.00
2023-05-14T07:58:13.618Z,100.00
2023-05-14T08:00:40.194Z,100.00
2023-05-14T08:03:07.078Z,100.00
2023-05-14T08:05:34.071Z,100.00
2023-05-14T08:08:00.733Z,100.00
2023-05-14T08:10:27.864Z,100.00
2023-05-14T08:12:54.739Z,100.00
2023-05-14T08:15:21.479Z,100.00
2023-05-14T08:17:48.120Z,100.00
2023-05-14T08:20:14.759Z,100.00
2023-05-14T08:22:41.559Z,100.00
2023-05-14T08:25:08.488Z,100.00
2023-05-14T08:27:35.292Z,100.00
2023-05-14T08:30:01.939Z,100.00
2023-05-14T08:32:28.605Z,100.00
2023-05-14T08:34:55.634Z,100.00
2023-05-14T08:37:22.253Z,100.00
2023-05-14T08:39:49.411Z,100.00
2023-05-14T08:42:22.084Z,100.00
2023-05-14T08:44:53.773Z,100.00
2023-05-14T08:47:22.715Z,100.00
2023-05-14T08:49:58.081Z,100.00
2023-05-14T08:52:24.715Z,100.00
2023-05-14T08:54:53.734Z,100.00
2023-05-14T08:57:21.457Z,100.00
2023-05-14T08:59:48.588Z,100.00
2023-05-14T09:02:17.391Z,100.00
2023-05-14T09:04:44.454Z,100.00
2023-05-14T09:07:11.685Z,100.00
2023-05-14T09:09:38.641Z,100.00
2023-05-14T09:12:06.573Z,100.00
2023-05-14T09:14:36.594Z,100.00
2023-05-14T09:17:03.663Z,100.00
2023-05-14T09:19:31.147Z,100.00
2023-05-14T09:22:01.737Z,100.00
2023-05-14T09:24:31.693Z,100.00
2023-05-14T09:26:58.975Z,100.00
2023-05-14T09:29:26.738Z,100.00
2023-05-14T09:31:54.811Z,100.00
2023-05-14T09:34:25.453Z,100.00
2023-05-14T09:36:58.054Z,100.00
2023-05-14T09:39:26.021Z,100.00
2023-05-14T09:41:53.147Z,100.00
2023-05-14T09:44:20.329Z,100.00
2023-05-14T09:46:47.615Z,100.00
2023-05-14T09:49:14.475Z,100.00
2023-05-14T09:51:41.159Z,100.00
2023-05-14T09:54:08.280Z,100.00
2023-05-14T09:56:36.573Z,100.00
2023-05-14T09:59:04.441Z,100.00
2023-05-14T10:01:33.234Z,100.00
2023-05-14T10:04:04.196Z,100.00
2023-05-14T10:06:36.511Z,100.00
2023-05-14T10:09:05.947Z,100.00
2023-05-14T10:11:38.497Z,100.00
2023-05-14T10:14:09.040Z,100.00
2023-05-14T10:16:41.065Z,100.00
2023-05-14T10:19:12.765Z,100.00
2023-05-14T10:21:41.361Z,100.00
2023-05-14T10:24:10.079Z,100.00
2023-05-14T10:26:39.569Z,100.00
2023-05-14T10:29:06.956Z,100.00
2023-05-14T10:31:56.197Z,100.00
2023-05-14T10:34:44.294Z,100.00
2023-05-14T10:37:14.453Z,100.00
2023-05-14T10:39:45.402Z,100.00
2023-05-14T10:42:29.888Z,100.00
2023-05-14T10:45:01.716Z,100.00
2023-05-14T10:47:29.488Z,100.00
2023-05-14T10:49:59.388Z,100.00
2023-05-14T10:52:26.815Z,100.00
2023-05-14T10:54:55.994Z,100.00
2023-05-14T10:57:24.506Z,100.00
2023-05-14T10:59:54.942Z,100.00
2023-05-14T11:02:27.381Z,100.00
2023-05-14T11:04:59.606Z,100.00
2023-05-14T11:07:42.098Z,100.00
2023-05-14T11:10:10.887Z,100.00
2023-05-14T11:12:39.365Z,100.00
2023-05-14T11:15:09.454Z,100.00
2023-05-14T11:17:37.455Z,100.00
2023-05-14T11:20:08.950Z,100.00
2023-05-14T11:22:37.588Z,100.00
2023-05-14T11:25:04.970Z,100.00
2023-05-14T11:27:34.179Z,100.00
2023-05-14T11:30:01.312Z,100.00
2023-05-14T11:32:28.098Z,100.00
2023-05-14T11:34:54.741Z,100.00
2023-05-14T11:37:21.538Z,100.00
2023-05-14T11:39:53.963Z,100.00
2023-05-14T11:42:21.585Z,100.00
2023-05-14T11:44:53.879Z,100.00
2023-05-14T11:47:23.373Z,100.00
2023-05-14T11:49:50.601Z,100.00
2023-05-14T11:52:19.515Z,100.00
2023-05-14T11:54:46.659Z,100.00
2023-05-14T11:57:18.608Z,100.00
2023-05-14T11:59:46.227Z,100.00
2023-05-14T12:02:15.484Z,100.00
2023-05-14T12:04:42.874Z,100.00
2023-05-14T12:07:30.309Z,100.00
2023-05-14T12:10:01.489Z,100.00
2023-05-14T12:12:28.081Z,100.00
2023-05-14T12:14:54.761Z,100.00
2023-05-14T12:17:22.600Z,100.00
2023-05-14T12:19:51.519Z,100.00
2023-05-14T12:22:20.300Z,100.00
2023-05-14T12:24:58.387Z,100.00
2023-05-14T12:27:27.751Z,100.00
2023-05-14T12:32:36.209Z,100.00
2023-05-14T12:35:03.096Z,100.00
2023-05-14T12:37:31.138Z,100.00
2023-05-14T12:39:58.034Z,100.00
2023-05-14T12:42:24.691Z,100.00
2023-05-14T12:44:52.203Z,100.00
2023-05-14T12:47:19.682Z,100.00
2023-05-14T12:49:46.408Z,100.00
2023-05-14T12:54:43.550Z,100.00
2023-05-14T12:57:10.467Z,100.00
2023-05-14T12:59:37.181Z,100.00
2023-05-14T13:02:04.045Z,100.00
2023-05-14T13:04:30.770Z,100.00
2023-05-14T13:06:57.542Z,100.00
2023-05-14T13:09:24.162Z,100.00
2023-05-14T13:11:50.754Z,100.00
2023-05-14T13:14:18.405Z,100.00
2023-05-14T13:16:46.858Z,100.00
2023-05-14T13:19:13.520Z,100.00
2023-05-14T13:21:40.105Z,100.00
2023-05-14T13:24:06.796Z,100.00
2023-05-14T13:26:33.436Z,100.00
2023-05-14T13:29:00.012Z,100.00
2023-05-14T13:31:26.768Z,100.00
2023-05-14T13:33:53.724Z,100.00
2023-05-14T13:36:20.402Z,100.00
2023-05-14T13:38:47.116Z,100.00
2023-05-14T13:41:13.778Z,100.00
2023-05-14T13:43:40.427Z,100.00
2023-05-14T13:46:07.674Z,100.00
2023-05-14T13:48:35.683Z,100.00
2023-05-14T13:51:02.202Z,100.00
2023-05-14T13:53:28.857Z,100.00
2023-05-14T13:55:58.542Z,100.00
2023-05-14T13:58:25.775Z,100.00
2023-05-14T14:00:53.272Z,100.00
2023-05-14T14:03:20.148Z,100.00
2023-05-14T14:05:46.793Z,100.00
2023-05-14T14:10:48.601Z,100.00
2023-05-14T14:13:15.243Z,100.00
2023-05-14T14:15:42.604Z,100.00
2023-05-14T14:18:09.258Z,100.00
2023-05-14T14:20:36.275Z,100.00
2023-05-14T14:23:02.878Z,100.00
2023-05-14T14:25:29.417Z,100.00
2023-05-14T14:27:56.187Z,100.00
2023-05-14T14:30:22.737Z,100.00
2023-05-14T14:32:50.216Z,100.00
2023-05-14T14:35:18.677Z,100.00
2023-05-14T14:37:49.225Z,100.00
2023-05-14T14:40:17.253Z,100.00
2023-05-14T14:42:44.411Z,100.00
2023-05-14T14:45:12.332Z,100.00
2023-05-14T14:47:39.122Z,100.00
2023-05-14T14:50:06.612Z,100.00
2023-05-14T14:52:34.190Z,100.00
2023-05-14T14:55:00.735Z,100.00
2023-05-14T14:57:27.332Z,100.00
2023-05-14T14:59:53.872Z,100.00
2023-05-14T15:02:20.589Z,100.00
2023-05-14T15:04:47.187Z,100.00
2023-05-14T15:07:15.972Z,100.00
2023-05-14T15:09:42.708Z,100.00
2023-05-14T15:12:10.846Z,100.00
2023-05-14T15:14:37.529Z,100.00
2023-05-14T15:17:04.463Z,100.00
2023-05-14T15:19:32.395Z,100.00
2023-05-14T15:21:58.975Z,100.00
2023-05-14T15:24:26.207Z,100.00
2023-05-14T15:26:53.653Z,100.00
2023-05-14T15:29:20.620Z,100.00
2023-05-14T15:31:47.357Z,100.00
2023-05-14T15:34:14.127Z,100.00
2023-05-14T15:36:40.855Z,100.00
2023-05-14T15:39:10.423Z,100.00
2023-05-14T15:41:38.146Z,100.00
2023-05-14T15:44:05.544Z,100.00
2023-05-14T15:46:32.723Z,100.00
2023-05-14T15:48:59.430Z,100.00
2023-05-14T15:51:26.336Z,100.00
2023-05-14T15:53:54.177Z,100.00
2023-05-14T15:56:22.930Z,100.00
2023-05-14T15:58:49.967Z,100.00
2023-05-14T16:01:16.831Z,100.00
2023-05-14T16:03:43.664Z,100.00
2023-05-14T16:06:11.369Z,100.00
2023-05-14T16:08:38.465Z,100.00
2023-05-14T16:11:06.252Z,100.00
2023-05-14T16:13:32.929Z,100.00
2023-05-14T16:15:59.977Z,100.00
2023-05-14T16:18:26.779Z,100.00
2023-05-14T16:20:53.717Z,100.00
2023-05-14T16:23:20.575Z,100.00
2023-05-14T16:25:47.245Z,100.00
2023-05-14T16:28:13.935Z,100.00
2023-05-14T16:30:40.654Z,100.00
2023-05-14T16:33:07.307Z,100.00
2023-05-14T16:35:34.264Z,100.00
2023-05-14T16:38:01.713Z,100.00
2023-05-14T16:40:28.301Z,100.00
2023-05-14T16:42:54.877Z,100.00
2023-05-14T16:45:22.005Z,100.00
2023-05-14T16:47:48.819Z,100.00
2023-05-14T16:50:15.496Z,100.00
2023-05-14T16:52:42.445Z,100.00
2023-05-14T16:55:09.418Z,100.00
2023-05-14T16:57:36.176Z,100.00
2023-05-14T17:00:06.204Z,100.00
2023-05-14T17:02:33.637Z,100.00
2023-05-14T17:05:00.656Z,100.00
2023-05-14T17:07:27.433Z,100.00
2023-05-14T17:09:54.176Z,100.00
2023-05-14T17:12:21.036Z,100.00
2023-05-14T17:14:47.629Z,100.00
2023-05-14T17:17:14.242Z,100.00
2023-05-14T17:19:41.066Z,100.00
2023-05-14T17:22:07.920Z,100.00
2023-05-14T17:24:36.493Z,100.00
2023-05-14T17:27:03.291Z,100.00
2023-05-14T17:29:29.828Z,100.00
2023-05-14T17:31:56.579Z,100.00
2023-05-14T17:34:23.367Z,100.00
2023-05-14T17:36:50.407Z,100.00
2023-05-14T17:39:16.975Z,100.00
2023-05-14T17:41:43.798Z,100.00
2023-05-14T17:44:12.832Z,100.00
2023-05-14T17:46:40.182Z,100.00
2023-05-14T17:49:06.865Z,100.00
2023-05-14T17:51:33.724Z,100.00
2023-05-14T17:54:00.384Z,100.00
2023-05-14T17:56:27.406Z,100.00
2023-05-14T17:58:54.046Z,100.00
2023-05-14T18:01:20.677Z,100.00
2023-05-14T18:03:47.613Z,100.00
2023-05-14T18:06:15.086Z,100.00
2023-05-14T18:08:41.860Z,100.00
2023-05-14T18:11:08.519Z,100.00
2023-05-14T18:13:35.121Z,100.00
2023-05-14T18:16:01.828Z,100.00
2023-05-14T18:18:28.569Z,100.00
2023-05-14T18:20:55.348Z,100.00
2023-05-14T18:23:22.046Z,100.00
2023-05-14T18:25:48.836Z,100.00
2023-05-14T18:28:15.871Z,100.00
2023-05-14T18:30:43.654Z,100.00
2023-05-14T18:33:10.512Z,100.00
2023-05-14T18:35:37.459Z,100.00
2023-05-14T18:38:04.146Z,100.00
2023-05-14T18:40:30.728Z,100.00
2023-05-14T18:42:58.158Z,100.00
2023-05-14T18:45:25.525Z,100.00
2023-05-14T18:47:52.451Z,100.00
2023-05-14T18:50:19.569Z,100.00
2023-05-14T18:52:46.268Z,100.00
2023-05-14T18:55:12.950Z,100.00
2023-05-14T18:57:39.563Z,100.00
2023-05-14T19:00:07.113Z,100.00
2023-05-14T19:02:33.708Z,100.00
2023-05-14T19:05:00.390Z,100.00
2023-05-14T19:07:27.796Z,100.00
2023-05-14T19:09:54.400Z,100.00
2023-05-14T19:12:21.127Z,100.00
2023-05-14T19:14:47.709Z,100.00
2023-05-14T19:17:14.430Z,100.00
2023-05-14T19:19:41.067Z,100.00
2023-05-14T19:22:07.850Z,100.00
2023-05-14T19:24:34.771Z,100.00
2023-05-14T19:27:01.378Z,100.00
2023-05-14T19:29:27.953Z,100.00
2023-05-14T19:31:54.657Z,100.00
2023-05-14T19:34:21.582Z,100.00
2023-05-14T19:36:48.241Z,100.00
2023-05-14T19:39:14.795Z,100.00
2023-05-14T19:41:41.423Z,100.00
2023-05-14T19:44:08.558Z,100.00
2023-05-14T19:46:35.416Z,100.00
2023-05-14T19:49:01.994Z,100.00
2023-05-14T19:51:28.792Z,100.00
2023-05-14T19:53:55.530Z,100.00
2023-05-14T19:56:23.563Z,100.00
2023-05-14T19:58:51.418Z,100.00
2023-05-14T20:01:18.841Z,100.00
2023-05-14T20:03:46.139Z,100.00
2023-05-14T20:06:12.973Z,100.00
2023-05-14T20:08:40.209Z,100.00
2023-05-14T20:11:06.964Z,100.00
2023-05-14T20:13:35.552Z,100.00
2023-05-14T20:16:02.339Z,100.00
2023-05-14T20:18:28.969Z,100.00
2023-05-14T20:20:56.044Z,100.00
2023-05-14T20:23:22.716Z,100.00
2023-05-14T20:25:49.268Z,100.00
2023-05-14T20:28:15.922Z,100.00
2023-05-14T20:30:42.635Z,100.00
2023-05-14T20:33:09.324Z,100.00
2023-05-14T20:35:36.110Z,100.00
2023-05-14T20:38:03.823Z,100.00
2023-05-14T20:40:32.755Z,100.00
2023-05-14T20:42:59.954Z,100.00
2023-05-14T20:45:27.280Z,100.00
2023-05-14T20:47:54.008Z,100.00
2023-05-14T20:50:21.598Z,100.00
2023-05-14T20:52:48.536Z,100.00
2023-05-14T20:55:15.211Z,100.00
2023-05-14T20:57:43.608Z,100.00
2023-05-14T21:00:11.062Z,100.00
2023-05-14T21:02:37.993Z,100.00
2023-05-14T21:05:05.669Z,100.00
2023-05-14T21:07:32.266Z,100.00
2023-05-14T21:09:59.158Z,100.00
2023-05-14T21:12:25.733Z,100.00
2023-05-14T21:14:52.285Z,100.00
2023-05-14T21:17:19.134Z,100.00
2023-05-14T21:19:45.947Z,100.00
2023-05-14T21:22:12.701Z,100.00
2023-05-14T21:24:39.332Z,100.00
2023-05-14T21:27:06.215Z,100.00
2023-05-14T21:29:32.803Z,100.00
2023-05-14T21:31:59.567Z,100.00
2023-05-14T21:34:26.327Z,100.00
2023-05-14T21:36:53.097Z,100.00
2023-05-14T21:39:20.051Z,100.00
2023-05-14T21:41:46.701Z,100.00
2023-05-14T21:44:13.788Z,100.00
2023-05-14T21:46:40.578Z,100.00
2023-05-14T21:49:07.129Z,100.00
2023-05-14T21:51:33.660Z,100.00
2023-05-14T21:54:00.305Z,100.00
2023-05-14T21:56:27.323Z,100.00
2023-05-14T21:58:56.118Z,100.00
2023-05-14T22:01:22.902Z,100.00
2023-05-14T22:03:49.720Z,100.00
2023-05-14T22:06:16.366Z,100.00
2023-05-14T22:08:43.096Z,100.00
2023-05-14T22:11:09.693Z,100.00
2023-05-14T22:13:40.804Z,100.00
2023-05-14T22:16:13.169Z,100.00
2023-05-14T22:18:41.032Z,100.00
2023-05-14T22:21:07.639Z,100.00
2023-05-14T22:23:34.506Z,100.00
2023-05-14T22:26:01.268Z,100.00
2023-05-14T22:28:28.020Z,100.00
2023-05-14T22:30:55.249Z,100.00
2023-05-14T22:33:22.506Z,100.00
2023-05-14T22:35:49.117Z,100.00
2023-05-14T22:38:16.048Z,100.00
2023-05-14T22:40:42.578Z,100.00
2023-05-14T22:43:09.295Z,100.00
2023-05-14T22:45:36.398Z,100.00
2023-05-14T22:48:03.017Z,100.00
2023-05-14T22:50:31.649Z,100.00
2023-05-14T22:52:58.217Z,100.00
2023-05-14T22:55:25.050Z,100.00
2023-05-14T22:57:51.869Z,100.00
2023-05-14T23:00:18.852Z,100.00
2023-05-14T23:02:45.638Z,100.00
2023-05-14T23:05:12.282Z,100.00
2023-05-14T23:07:39.111Z,100.00
2023-05-14T23:10:06.425Z,100.00
2023-05-14T23:12:33.080Z,100.00
2023-05-14T23:14:59.813Z,100.00
2023-05-14T23:17:26.612Z,100.00
2023-05-14T23:19:53.390Z,100.00
2023-05-14T23:22:20.426Z,100.00
2023-05-14T23:24:47.171Z,100.00
2023-05-14T23:27:13.782Z,100.00
2023-05-14T23:29:40.343Z,100.00
2023-05-14T23:32:07.270Z,100.00
2023-05-14T23:34:34.722Z,100.00
2023-05-14T23:37:01.380Z,100.00
2023-05-14T23:39:28.070Z,100.00
2023-05-14T23:41:54.662Z,100.00
2023-05-14T23:44:21.568Z,100.00
2023-05-14T23:46:48.887Z,100.00
2023-05-14T23:49:15.518Z,100.00
2023-05-14T23:51:42.260Z,100.00
2023-05-14T23:54:08.931Z,100.00
2023-05-14T23:56:35.858Z,100.00
2023-05-14T23:59:03.609Z,100.00
